Time;durP1;ratioP1;P1;durP2;ratioP2;P2;SDS_P1;SDS_P2;PMS_P1;PMS_P2;Temp;Humidity;BMP_temperature;BMP_pressure;BME280_temperature;BME280_humidity;BME280_pressure;Samples;Min_cycle;Max_cycle;Signal;HPM_P1;HPM_P2
2021/07/21 00:01:58;;;;;;;;;17.50;15.00;;;;;;;;5057935;28;46917;-81
2021/07/21 00:04:24;;;;;;;;;17.25;14.25;;;;;;;;5058768;28;46889;-81
2021/07/21 00:06:49;;;;;;;;;17.25;16.00;;;;;;;;5058724;28;47120;-82
2021/07/21 00:09:14;;;;;;;;;16.75;14.50;;;;;;;;5058853;28;46930;-82
2021/07/21 00:14:24;;;;;;;;;12.25;12.25;;;;;;;;5058879;28;47062;-82
2021/07/21 00:16:55;;;;;;;;;15.50;14.25;;;;;;;;5058906;28;46908;-81
2021/07/21 00:20:05;;;;;;;;;15.75;15.50;;;;;;;;5058632;28;47005;-81
2021/07/21 00:22:06;;;;;;;;;17.25;14.00;;;;;;;;5058961;28;46774;-81
2021/07/21 00:24:32;;;;;;;;;15.50;15.25;;;;;;;;5058741;28;46846;-81
2021/07/21 00:26:57;;;;;;;;;15.50;15.25;;;;;;;;5058673;28;47052;-81
2021/07/21 00:29:23;;;;;;;;;23.00;17.00;;;;;;;;5058306;28;46997;-81
2021/07/21 00:31:48;;;;;;;;;18.00;16.25;;;;;;;;5058485;28;46929;-81
2021/07/21 00:34:13;;;;;;;;;18.75;18.00;;;;;;;;5071949;28;47084;-81
2021/07/21 00:36:39;;;;;;;;;18.25;16.00;;;;;;;;5058522;28;47056;-81
2021/07/21 00:39:04;;;;;;;;;17.50;15.25;;;;;;;;5058069;28;47777;-81
2021/07/21 00:41:30;;;;;;;;;14.50;13.50;;;;;;;;5058514;28;46865;-81
2021/07/21 00:43:55;;;;;;;;;16.75;15.50;;;;;;;;5058202;28;47063;-81
2021/07/21 00:46:20;;;;;;;;;15.50;14.75;;;;;;;;5058905;28;46950;-81
2021/07/21 00:48:45;;;;;;;;;17.50;15.75;;;;;;;;5058229;28;48283;-81
2021/07/21 00:51:11;;;;;;;;;20.00;16.50;;;;;;;;5064703;28;46989;-81
2021/07/21 00:53:36;;;;;;;;;18.25;17.25;;;;;;;;5078581;28;46884;-81
2021/07/21 00:56:02;;;;;;;;;18.25;17.25;;;;;;;;5078604;28;47156;-81
2021/07/21 00:58:27;;;;;;;;;19.00;18.00;;;;;;;;5059947;28;48290;-81
2021/07/21 01:00:55;;;;;;;;;17.25;15.25;;;;;;;;5078396;28;46832;-81
2021/07/21 01:03:21;;;;;;;;;16.25;14.00;;;;;;;;5078258;28;46803;-81
2021/07/21 01:05:46;;;;;;;;;17.50;15.50;;;;;;;;5078516;28;46778;-81
2021/07/21 01:08:12;;;;;;;;;19.50;15.00;;;;;;;;5078250;28;46979;-81
2021/07/21 01:10:41;;;;;;;;;17.75;15.75;;;;;;;;5078343;28;47070;-81
2021/07/21 01:13:09;;;;;;;;;16.50;15.50;;;;;;;;5077490;28;46963;-81
2021/07/21 01:15:45;;;;;;;;;16.00;14.75;;;;;;;;5078537;28;47676;-81
2021/07/21 01:18:17;;;;;;;;;14.25;13.00;;;;;;;;5059640;28;49571;-81
2021/07/21 01:21:02;;;;;;;;;19.00;16.50;;;;;;;;5077729;28;46932;-81
2021/07/21 01:23:46;;;;;;;;;14.25;11.50;;;;;;;;5059063;28;47248;-81
2021/07/21 01:26:16;;;;;;;;;16.25;14.75;;;;;;;;5039669;28;46886;-81
2021/07/21 01:28:42;;;;;;;;;15.75;15.25;;;;;;;;5039329;28;47939;-81
2021/07/21 01:31:09;;;;;;;;;19.25;17.50;;;;;;;;5057469;28;47086;-81
2021/07/21 01:33:36;;;;;;;;;16.00;14.75;;;;;;;;5048076;28;47085;-81
2021/07/21 01:36:05;;;;;;;;;18.25;16.75;;;;;;;;5062346;28;47304;-81
2021/07/21 01:38:36;;;;;;;;;20.50;17.25;;;;;;;;5039574;28;49046;-81
2021/07/21 01:41:03;;;;;;;;;17.75;17.50;;;;;;;;5057350;28;46950;-81
2021/07/21 01:43:30;;;;;;;;;20.50;16.25;;;;;;;;5057678;28;47134;-81
2021/07/21 01:45:56;;;;;;;;;18.75;17.00;;;;;;;;5039564;28;46885;-81
2021/07/21 01:48:22;;;;;;;;;19.50;18.00;;;;;;;;5057491;28;48243;-81
2021/07/21 01:50:49;;;;;;;;;19.75;15.00;;;;;;;;5057232;28;47207;-81
2021/07/21 01:53:14;;;;;;;;;17.50;16.75;;;;;;;;5057561;28;46953;-81
2021/07/21 01:55:40;;;;;;;;;22.25;17.25;;;;;;;;5071257;28;46974;-81
2021/07/21 01:58:07;;;;;;;;;20.50;18.00;;;;;;;;5057292;28;48086;-82
2021/07/21 02:00:33;;;;;;;;;16.25;16.25;;;;;;;;5057156;28;46871;-82
2021/07/21 02:02:59;;;;;;;;;18.00;17.25;;;;;;;;5057615;28;46950;-82
2021/07/21 02:05:26;;;;;;;;;19.75;16.50;;;;;;;;5057083;28;47206;-81
2021/07/21 02:07:51;;;;;;;;;18.75;18.00;;;;;;;;5057387;28;46986;-81
2021/07/21 02:10:18;;;;;;;;;19.75;17.75;;;;;;;;5038898;28;47726;-81
2021/07/21 02:12:45;;;;;;;;;19.00;16.75;;;;;;;;5057040;28;47011;-81
2021/07/21 02:15:11;;;;;;;;;20.00;14.25;;;;;;;;5057342;28;48004;-80
2021/07/21 02:17:38;;;;;;;;;19.75;14.50;;;;;;;;5057358;28;47854;-80
2021/07/21 02:20:04;;;;;;;;;20.75;17.50;;;;;;;;5056682;28;46748;-80
2021/07/21 02:22:30;;;;;;;;;16.25;15.75;;;;;;;;5065616;28;46847;-80
2021/07/21 02:24:55;;;;;;;;;17.50;16.50;;;;;;;;5057263;28;46806;-80
2021/07/21 02:27:21;;;;;;;;;23.25;18.25;;;;;;;;5060028;28;47129;-81
2021/07/21 02:29:46;;;;;;;;;21.00;18.00;;;;;;;;5060491;28;46918;-81
2021/07/21 02:32:14;;;;;;;;;18.25;17.25;;;;;;;;5042398;28;46872;-81
2021/07/21 02:34:43;;;;;;;;;19.00;19.00;;;;;;;;5073818;27;47096;-83
2021/07/21 02:37:08;;;;;;;;;18.25;18.25;;;;;;;;5060206;28;47035;-81
2021/07/21 02:39:34;;;;;;;;;24.25;20.75;;;;;;;;5060061;28;47142;-82
2021/07/21 02:41:59;;;;;;;;;19.75;17.50;;;;;;;;5060570;28;46828;-81
2021/07/21 02:44:25;;;;;;;;;26.50;21.50;;;;;;;;5042241;28;47403;-81
2021/07/21 02:46:50;;;;;;;;;17.75;15.50;;;;;;;;5060340;28;46943;-80
2021/07/21 02:49:18;;;;;;;;;15.00;15.00;;;;;;;;5059961;28;46942;-81
2021/07/21 02:51:52;;;;;;;;;18.25;14.25;;;;;;;;5060178;28;46947;-81
2021/07/21 02:54:21;;;;;;;;;21.00;19.50;;;;;;;;5060153;28;47175;-79
2021/07/21 02:56:55;;;;;;;;;16.25;15.50;;;;;;;;5059955;28;47918;-80
2021/07/21 02:59:23;;;;;;;;;22.75;18.75;;;;;;;;5067430;28;46844;-80
2021/07/21 03:01:49;;;;;;;;;19.50;16.25;;;;;;;;5080233;28;46865;-81
2021/07/21 03:04:21;;;;;;;;;16.25;15.00;;;;;;;;5080626;28;46967;-81
2021/07/21 03:06:48;;;;;;;;;20.25;19.50;;;;;;;;5079640;28;47094;-81
2021/07/21 03:09:13;;;;;;;;;21.75;20.50;;;;;;;;5061928;28;47640;-81
2021/07/21 03:11:39;;;;;;;;;17.25;15.75;;;;;;;;5061508;28;47085;-81
2021/07/21 03:14:06;;;;;;;;;21.75;18.50;;;;;;;;5061897;28;46821;-81
2021/07/21 03:16:32;;;;;;;;;21.50;18.75;;;;;;;;5079855;28;47090;-81
2021/07/21 03:19:00;;;;;;;;;17.75;17.75;;;;;;;;5080013;28;47087;-81
2021/07/21 03:21:26;;;;;;;;;19.50;17.25;;;;;;;;5058438;28;47079;-80
2021/07/21 03:23:52;;;;;;;;;23.00;20.00;;;;;;;;5059920;28;46880;-80
2021/07/21 03:26:19;;;;;;;;;21.75;20.75;;;;;;;;5059410;28;48065;-80
2021/07/21 03:28:45;;;;;;;;;24.50;19.75;;;;;;;;5059560;28;46957;-81
2021/07/21 03:31:11;;;;;;;;;26.25;22.75;;;;;;;;5059458;28;46756;-81
2021/07/21 03:33:37;;;;;;;;;22.75;21.00;;;;;;;;5068407;27;46797;-81
2021/07/21 03:36:04;;;;;;;;;22.75;18.50;;;;;;;;5063843;28;47790;-80
2021/07/21 03:38:29;;;;;;;;;22.00;19.50;;;;;;;;5059253;28;46799;-81
2021/07/21 03:40:55;;;;;;;;;26.25;19.50;;;;;;;;5041118;28;46891;-81
2021/07/21 03:43:22;;;;;;;;;24.00;21.75;;;;;;;;5059577;28;47101;-81
2021/07/21 03:45:48;;;;;;;;;24.00;21.75;;;;;;;;5059174;28;47035;-81
2021/07/21 03:48:14;;;;;;;;;22.00;21.00;;;;;;;;5059318;28;47087;-81
2021/07/21 03:50:39;;;;;;;;;20.75;18.75;;;;;;;;5059010;28;47092;-81
2021/07/21 03:53:05;;;;;;;;;25.00;23.50;;;;;;;;5059503;28;46740;-81
2021/07/21 03:55:30;;;;;;;;;24.25;21.50;;;;;;;;5058943;28;47127;-81
2021/07/21 03:57:56;;;;;;;;;24.50;22.25;;;;;;;;5059057;28;46778;-81
2021/07/21 04:00:22;;;;;;;;;22.25;20.25;;;;;;;;5058993;28;46996;-81
2021/07/21 04:02:52;;;;;;;;;29.50;23.25;;;;;;;;5059265;28;47111;-81
2021/07/21 04:05:17;;;;;;;;;31.75;20.75;;;;;;;;5058577;28;48041;-81
2021/07/21 04:07:43;;;;;;;;;27.50;23.50;;;;;;;;5058928;28;46802;-81
2021/07/21 04:10:09;;;;;;;;;28.50;23.00;;;;;;;;5058894;28;46953;-81
2021/07/21 04:12:36;;;;;;;;;25.50;22.25;;;;;;;;5058732;28;47120;-81
2021/07/21 04:15:02;;;;;;;;;21.75;21.25;;;;;;;;5040489;28;47197;-81
2021/07/21 04:17:31;;;;;;;;;24.75;21.75;;;;;;;;5058695;28;47118;-81
2021/07/21 04:20:00;;;;;;;;;27.50;22.50;;;;;;;;5058392;28;47085;-82
2021/07/21 04:22:26;;;;;;;;;25.75;21.25;;;;;;;;5065834;28;46931;-82
2021/07/21 04:24:51;;;;;;;;;27.25;23.25;;;;;;;;5058358;28;47135;-82
2021/07/21 04:27:17;;;;;;;;;25.75;22.75;;;;;;;;5058598;28;46972;-81
2021/07/21 04:29:46;;;;;;;;;26.00;23.50;;;;;;;;5058685;28;46803;-81
2021/07/21 04:32:13;;;;;;;;;24.75;20.75;;;;;;;;5058796;28;46921;-81
2021/07/21 04:34:38;;;;;;;;;23.00;22.75;;;;;;;;5070355;28;47200;-81
2021/07/21 04:37:04;;;;;;;;;28.25;23.25;;;;;;;;5040024;28;47855;-81
2021/07/21 04:39:30;;;;;;;;;24.75;23.50;;;;;;;;5058211;28;46916;-80
2021/07/21 04:41:56;;;;;;;;;23.25;20.75;;;;;;;;5058980;28;47011;-80
2021/07/21 04:44:22;;;;;;;;;25.00;21.25;;;;;;;;5057989;28;46912;-80
2021/07/21 04:46:48;;;;;;;;;27.50;23.75;;;;;;;;5058394;28;46943;-80
2021/07/21 04:49:17;;;;;;;;;23.00;20.75;;;;;;;;5057474;28;47062;-81
2021/07/21 04:51:43;;;;;;;;;26.00;21.00;;;;;;;;5058322;28;47078;-81
2021/07/21 04:54:08;;;;;;;;;20.25;19.75;;;;;;;;5057961;28;47818;-81
2021/07/21 04:56:34;;;;;;;;;24.00;22.25;;;;;;;;5058228;28;46909;-81
2021/07/21 04:58:59;;;;;;;;;23.25;20.50;;;;;;;;5057807;28;46862;-81
2021/07/21 05:01:25;;;;;;;;;24.50;24.25;;;;;;;;5058522;28;46988;-81
2021/07/21 05:03:54;;;;;;;;;24.00;20.50;;;;;;;;5039621;28;48534;-81
2021/07/21 05:06:19;;;;;;;;;24.25;22.00;;;;;;;;5057867;28;46952;-81
2021/07/21 05:08:44;;;;;;;;;24.00;21.00;;;;;;;;5058020;28;46976;-81
2021/07/21 05:11:10;;;;;;;;;23.75;21.25;;;;;;;;5039897;28;47009;-81
2021/07/21 05:13:40;;;;;;;;;30.25;25.00;;;;;;;;5057659;28;46974;-81
2021/07/21 05:16:06;;;;;;;;;22.50;20.25;;;;;;;;5058059;28;47165;-81
2021/07/21 05:18:31;;;;;;;;;24.75;24.75;;;;;;;;5057773;28;46724;-81
2021/07/21 05:20:56;;;;;;;;;22.50;21.50;;;;;;;;5062783;28;47362;-81
2021/07/21 05:23:22;;;;;;;;;21.50;20.75;;;;;;;;5058649;28;46976;-81
2021/07/21 05:25:47;;;;;;;;;28.25;23.00;;;;;;;;5057757;28;46945;-81
2021/07/21 05:28:12;;;;;;;;;24.75;23.25;;;;;;;;5039420;28;46925;-81
2021/07/21 05:30:38;;;;;;;;;24.25;21.50;;;;;;;;5039765;28;47732;-81
2021/07/21 05:33:03;;;;;;;;;22.50;21.25;;;;;;;;5061498;27;47897;-81
2021/07/21 05:35:28;;;;;;;;;23.50;21.25;;;;;;;;5048446;28;47096;-81
2021/07/21 05:37:55;;;;;;;;;20.50;17.50;;;;;;;;5057548;28;46943;-81
2021/07/21 05:40:20;;;;;;;;;27.25;21.25;;;;;;;;5039514;28;47123;-81
2021/07/21 05:42:46;;;;;;;;;21.25;20.25;;;;;;;;5057183;28;47102;-81
2021/07/21 05:45:11;;;;;;;;;20.25;17.75;;;;;;;;5057602;28;46925;-80
2021/07/21 05:47:36;;;;;;;;;19.25;17.50;;;;;;;;5039227;28;47207;-82
2021/07/21 05:50:02;;;;;;;;;23.00;21.25;;;;;;;;5057451;28;47131;-81
2021/07/21 05:52:28;;;;;;;;;24.75;23.25;;;;;;;;5057173;28;47021;-82
2021/07/21 05:54:53;;;;;;;;;24.25;18.75;;;;;;;;5057410;28;46809;-84
2021/07/21 05:57:18;;;;;;;;;26.00;22.75;;;;;;;;5057277;28;46799;-82
2021/07/21 05:59:44;;;;;;;;;25.75;20.25;;;;;;;;5057785;28;46716;-83
2021/07/21 06:02:09;;;;;;;;;20.00;15.75;;;;;;;;5041797;28;48032;-82
2021/07/21 06:04:34;;;;;;;;;20.50;19.75;;;;;;;;5061011;28;46858;-81
2021/07/21 06:07:00;;;;;;;;;23.75;21.75;;;;;;;;5060445;28;46959;-80
2021/07/21 06:09:25;;;;;;;;;20.25;17.50;;;;;;;;5061055;28;46739;-81
2021/07/21 06:11:51;;;;;;;;;22.25;18.75;;;;;;;;5042216;28;49660;-81
2021/07/21 06:14:17;;;;;;;;;18.75;15.00;;;;;;;;5060588;28;46878;-81
2021/07/21 06:16:42;;;;;;;;;18.00;18.00;;;;;;;;5042449;28;47079;-81
2021/07/21 06:19:08;;;;;;;;;20.25;17.75;;;;;;;;5060696;28;47215;-81
2021/07/21 06:21:34;;;;;;;;;21.00;19.00;;;;;;;;5067071;28;48281;-81
2021/07/21 06:23:59;;;;;;;;;26.25;23.50;;;;;;;;5042135;28;47074;-81
2021/07/21 06:26:24;;;;;;;;;27.00;21.75;;;;;;;;5060456;28;46947;-81
2021/07/21 06:28:50;;;;;;;;;29.50;26.25;;;;;;;;5060395;28;47279;-82
2021/07/21 06:31:15;;;;;;;;;25.25;20.00;;;;;;;;5060300;28;47098;-82
2021/07/21 06:33:41;;;;;;;;;19.00;16.50;;;;;;;;5069677;27;46921;-82
2021/07/21 06:36:06;;;;;;;;;30.25;24.25;;;;;;;;5064252;28;46927;-82
2021/07/21 06:38:31;;;;;;;;;18.75;18.00;;;;;;;;5060539;28;47146;-82
2021/07/21 06:40:57;;;;;;;;;18.25;16.50;;;;;;;;5060082;28;47558;-82
2021/07/21 06:43:22;;;;;;;;;18.50;16.50;;;;;;;;5060094;28;46919;-82
2021/07/21 06:45:49;;;;;;;;;21.25;17.75;;;;;;;;5060249;28;47304;-82
2021/07/21 06:48:14;;;;;;;;;17.75;15.75;;;;;;;;5042384;28;46747;-82
2021/07/21 06:50:39;;;;;;;;;16.50;13.75;;;;;;;;5059800;28;47829;-81
2021/07/21 06:53:05;;;;;;;;;19.50;18.50;;;;;;;;5060153;28;46797;-82
2021/07/21 06:55:30;;;;;;;;;20.00;18.00;;;;;;;;5041797;28;47096;-82
2021/07/21 06:57:55;;;;;;;;;17.25;16.00;;;;;;;;5060324;28;46993;-81
2021/07/21 07:00:20;;;;;;;;;16.75;16.00;;;;;;;;5059616;28;46923;-81
2021/07/21 07:02:46;;;;;;;;;23.00;17.75;;;;;;;;5060136;28;46865;-81
2021/07/21 07:05:11;;;;;;;;;19.75;17.50;;;;;;;;5059638;28;46908;-81
2021/07/21 07:07:36;;;;;;;;;27.00;22.00;;;;;;;;5060041;28;46751;-82
2021/07/21 07:10:05;;;;;;;;;21.00;18.50;;;;;;;;5059780;28;46955;-82
2021/07/21 07:12:31;;;;;;;;;22.25;18.75;;;;;;;;5058414;28;47160;-82
2021/07/21 07:14:56;;;;;;;;;16.50;16.50;;;;;;;;5058840;28;47033;-82
2021/07/21 07:17:22;;;;;;;;;20.00;17.25;;;;;;;;5060035;28;47005;-82
2021/07/21 07:19:47;;;;;;;;;18.25;14.75;;;;;;;;5059236;28;47295;-82
2021/07/21 07:22:12;;;;;;;;;19.50;17.25;;;;;;;;5066687;28;47002;-82
2021/07/21 07:24:38;;;;;;;;;20.75;19.50;;;;;;;;5059695;28;46861;-82
2021/07/21 07:27:04;;;;;;;;;19.50;17.00;;;;;;;;5041498;28;46843;-82
2021/07/21 07:29:29;;;;;;;;;29.75;24.50;;;;;;;;5059310;28;47129;-82
2021/07/21 07:31:55;;;;;;;;;19.50;19.50;;;;;;;;5059404;28;46864;-82
2021/07/21 07:34:20;;;;;;;;;18.50;13.50;;;;;;;;5072713;27;46861;-82
2021/07/21 07:36:46;;;;;;;;;26.50;19.50;;;;;;;;5059344;28;47345;-82
2021/07/21 07:39:12;;;;;;;;;20.00;19.00;;;;;;;;5059004;28;47037;-82
2021/07/21 07:41:38;;;;;;;;;20.50;19.25;;;;;;;;5059281;28;46853;-82
2021/07/21 07:44:04;;;;;;;;;27.25;24.00;;;;;;;;5040941;28;47019;-82
2021/07/21 07:46:30;;;;;;;;;25.00;23.50;;;;;;;;5059559;28;46827;-82
2021/07/21 07:48:56;;;;;;;;;15.50;13.75;;;;;;;;5041030;28;48437;-82
2021/07/21 07:51:22;;;;;;;;;19.75;19.25;;;;;;;;5059036;28;46999;-82
2021/07/21 07:53:48;;;;;;;;;20.00;17.75;;;;;;;;5059016;28;46786;-82
2021/07/21 07:56:13;;;;;;;;;16.75;16.50;;;;;;;;5059481;28;47042;-82
2021/07/21 07:58:38;;;;;;;;;24.75;22.00;;;;;;;;5058685;28;47192;-83
2021/07/21 08:01:04;;;;;;;;;21.50;17.00;;;;;;;;5058933;28;47012;-82
2021/07/21 08:03:30;;;;;;;;;16.75;16.25;;;;;;;;5058900;28;47048;-83
2021/07/21 08:05:57;;;;;;;;;19.75;19.75;;;;;;;;5058965;28;46783;-82
2021/07/21 08:08:22;;;;;;;;;20.75;16.75;;;;;;;;5058784;28;47220;-82
2021/07/21 08:10:48;;;;;;;;;13.75;11.50;;;;;;;;5058794;28;46798;-82
2021/07/21 08:13:13;;;;;;;;;14.75;14.25;;;;;;;;5058381;28;47032;-83
2021/07/21 08:15:38;;;;;;;;;19.75;17.75;;;;;;;;5059071;28;46877;-83
2021/07/21 08:18:04;;;;;;;;;16.50;14.75;;;;;;;;5058616;28;47035;-83
2021/07/21 08:20:30;;;;;;;;;18.00;18.00;;;;;;;;5041691;28;47130;-82
2021/07/21 08:22:55;;;;;;;;;17.50;13.25;;;;;;;;5064223;28;47102;-82
2021/07/21 08:25:23;;;;;;;;;19.00;15.75;;;;;;;;5058526;28;47092;-82
2021/07/21 08:27:49;;;;;;;;;18.00;14.00;;;;;;;;5058265;28;47610;-82
2021/07/21 08:30:14;;;;;;;;;17.75;17.00;;;;;;;;5058595;28;46942;-82
2021/07/21 08:32:44;;;;;;;;;21.50;18.25;;;;;;;;5059217;27;47405;-82
2021/07/21 08:35:10;;;;;;;;;13.25;11.00;;;;;;;;5058543;28;46978;-82
2021/07/21 08:37:36;;;;;;;;;17.00;14.25;;;;;;;;5039886;28;47941;-82
2021/07/21 08:40:02;;;;;;;;;16.00;11.00;;;;;;;;5058420;28;47027;-82
2021/07/21 08:42:28;;;;;;;;;20.00;15.75;;;;;;;;5039912;28;46895;-82
2021/07/21 08:44:54;;;;;;;;;12.50;12.00;;;;;;;;5058714;28;46715;-82
2021/07/21 08:47:19;;;;;;;;;21.00;16.50;;;;;;;;5058137;28;47724;-82
2021/07/21 08:49:45;;;;;;;;;19.25;15.50;;;;;;;;5039723;28;46752;-82
2021/07/21 08:52:11;;;;;;;;;13.25;13.25;;;;;;;;5058150;28;47510;-82
2021/07/21 08:54:37;;;;;;;;;17.50;14.25;;;;;;;;5058729;28;46766;-82
2021/07/21 08:57:02;;;;;;;;;17.50;17.50;;;;;;;;5057967;28;46878;-82
2021/07/21 08:59:28;;;;;;;;;20.25;13.75;;;;;;;;5039656;28;46839;-82
2021/07/21 09:01:55;;;;;;;;;14.50;14.00;;;;;;;;5058014;28;46885;-82
2021/07/21 09:04:20;;;;;;;;;20.75;17.25;;;;;;;;5058357;28;47154;-82
2021/07/21 09:06:45;;;;;;;;;15.50;15.25;;;;;;;;5039489;28;48576;-82
2021/07/21 09:09:11;;;;;;;;;14.00;11.75;;;;;;;;5058192;28;47106;-82
2021/07/21 09:11:37;;;;;;;;;13.25;13.25;;;;;;;;5057616;28;46915;-82
2021/07/21 09:14:02;;;;;;;;;16.75;14.75;;;;;;;;5058076;28;46966;-83
2021/07/21 09:16:28;;;;;;;;;15.25;13.25;;;;;;;;5057680;28;47839;-82
2021/07/21 09:18:54;;;;;;;;;11.00;10.00;;;;;;;;5057977;28;46869;-82
2021/07/21 09:21:21;;;;;;;;;14.50;13.00;;;;;;;;5065794;28;46982;-82
2021/07/21 09:23:48;;;;;;;;;13.00;12.75;;;;;;;;5058043;28;47032;-82
2021/07/21 09:26:17;;;;;;;;;16.00;13.50;;;;;;;;5039552;28;48719;-82
2021/07/21 09:28:43;;;;;;;;;14.75;11.50;;;;;;;;5064670;28;46878;-82
2021/07/21 09:31:11;;;;;;;;;14.00;11.75;;;;;;;;5078009;28;46876;-82
2021/07/21 09:33:37;;;;;;;;;15.25;13.00;;;;;;;;5059756;28;47123;-82
2021/07/21 09:36:02;;;;;;;;;13.50;10.50;;;;;;;;5064677;28;46949;-82
2021/07/21 09:38:29;;;;;;;;;13.75;13.50;;;;;;;;5061447;28;47017;-82
2021/07/21 09:40:58;;;;;;;;;19.25;17.25;;;;;;;;5060988;28;46965;-82
2021/07/21 09:43:24;;;;;;;;;14.50;12.75;;;;;;;;5061596;28;47032;-82
2021/07/21 09:45:50;;;;;;;;;13.50;13.50;;;;;;;;5060773;28;47970;-82
2021/07/21 09:48:18;;;;;;;;;15.50;12.75;;;;;;;;5061280;28;46791;-82
2021/07/21 09:50:45;;;;;;;;;17.25;14.00;;;;;;;;5060728;28;46958;-83
2021/07/21 09:53:12;;;;;;;;;10.00;10.00;;;;;;;;5061332;28;46995;-83
2021/07/21 09:55:39;;;;;;;;;14.75;13.50;;;;;;;;5060744;28;46933;-83
2021/07/21 09:58:07;;;;;;;;;16.00;11.25;;;;;;;;5061038;28;46878;-83
2021/07/21 10:00:37;;;;;;;;;10.75;9.00;;;;;;;;5060633;28;46752;-83
2021/07/21 10:03:07;;;;;;;;;15.25;12.25;;;;;;;;5061148;28;47009;-83
2021/07/21 10:05:32;;;;;;;;;14.25;13.00;;;;;;;;5060221;28;47079;-83
2021/07/21 10:08:02;;;;;;;;;17.00;13.25;;;;;;;;5042522;28;46893;-83
2021/07/21 10:10:29;;;;;;;;;11.00;10.00;;;;;;;;5042468;28;47044;-83
2021/07/21 10:13:05;;;;;;;;;18.25;16.00;;;;;;;;5060571;28;46818;-83
2021/07/21 10:15:31;;;;;;;;;17.75;13.75;;;;;;;;5068198;28;46909;-83
2021/07/21 10:18:07;;;;;;;;;18.00;14.25;;;;;;;;5062582;28;46947;-83
2021/07/21 10:20:33;;;;;;;;;16.75;15.00;;;;;;;;5062241;28;46838;-83
2021/07/21 10:22:58;;;;;;;;;17.50;13.75;;;;;;;;5064913;28;47277;-83
2021/07/21 10:25:24;;;;;;;;;12.00;10.00;;;;;;;;5060543;28;47760;-83
2021/07/21 10:27:50;;;;;;;;;17.25;13.50;;;;;;;;5060149;28;47042;-83
2021/07/21 10:30:15;;;;;;;;;14.00;11.00;;;;;;;;5042244;28;46945;-83
2021/07/21 10:32:41;;;;;;;;;11.25;9.25;;;;;;;;5061520;27;46854;-83
2021/07/21 10:35:07;;;;;;;;;14.75;13.00;;;;;;;;5072476;28;47858;-83
2021/07/21 10:37:32;;;;;;;;;14.50;12.50;;;;;;;;5060140;28;46936;-82
2021/07/21 10:39:59;;;;;;;;;13.25;11.00;;;;;;;;5060453;28;46816;-83
2021/07/21 10:42:25;;;;;;;;;15.75;14.00;;;;;;;;5041920;28;47000;-82
2021/07/21 10:44:57;;;;;;;;;15.25;13.25;;;;;;;;5041930;28;47854;-81
2021/07/21 10:47:26;;;;;;;;;12.50;9.00;;;;;;;;5058952;28;46941;-81
2021/07/21 10:49:58;;;;;;;;;13.50;12.50;;;;;;;;5059917;28;46886;-81
2021/07/21 11:00:07;;;;;;;;;15.75;13.00;;;;;;;;5059973;28;47112;-81
2021/07/21 11:02:32;;;;;;;;;12.50;12.50;;;;;;;;5059702;28;47216;-81
2021/07/21 11:04:58;;;;;;;;;15.25;14.00;;;;;;;;5059506;28;47792;-81
2021/07/21 11:07:42;;;;;;;;;11.00;10.25;;;;;;;;5041163;28;47511;-80
2021/07/21 11:10:07;;;;;;;;;12.25;11.00;;;;;;;;5059527;28;46911;-82
2021/07/21 11:12:33;;;;;;;;;15.50;15.50;;;;;;;;5059725;28;47150;-83
2021/07/21 11:14:58;;;;;;;;;18.00;14.00;;;;;;;;5059441;28;47013;-83
2021/07/21 11:17:23;;;;;;;;;21.25;15.25;;;;;;;;5059827;28;46822;-83
2021/07/21 11:19:52;;;;;;;;;19.25;15.50;;;;;;;;5059288;28;46774;-83
2021/07/21 11:22:25;;;;;;;;;11.25;11.25;;;;;;;;5067514;28;46819;-83
2021/07/21 11:25:02;;;;;;;;;18.00;15.00;;;;;;;;5059338;28;47702;-83
2021/07/21 11:27:36;;;;;;;;;9.00;9.00;;;;;;;;5059389;28;46810;-83
2021/07/21 11:30:02;;;;;;;;;17.25;13.75;;;;;;;;5059346;28;46843;-83
2021/07/21 11:32:29;;;;;;;;;15.50;13.00;;;;;;;;5059690;28;47034;-83
2021/07/21 11:34:55;;;;;;;;;11.50;10.00;;;;;;;;5072239;27;48198;-83
2021/07/21 11:37:32;;;;;;;;;14.50;9.75;;;;;;;;5040949;28;47106;-83
2021/07/21 11:39:58;;;;;;;;;12.25;11.25;;;;;;;;5067407;28;47130;-83
2021/07/21 11:42:23;;;;;;;;;9.00;8.50;;;;;;;;5079619;28;46762;-83
2021/07/21 11:44:49;;;;;;;;;15.25;15.25;;;;;;;;5079399;28;46707;-83
2021/07/21 11:47:15;;;;;;;;;11.75;8.25;;;;;;;;5079346;28;47059;-83
2021/07/21 11:49:48;;;;;;;;;13.75;12.25;;;;;;;;5079274;28;46990;-83
2021/07/21 11:52:13;;;;;;;;;16.50;15.25;;;;;;;;5079422;28;47111;-83
2021/07/21 11:54:39;;;;;;;;;16.00;15.25;;;;;;;;5079317;28;46908;-83
2021/07/21 11:57:06;;;;;;;;;19.25;14.75;;;;;;;;5079183;28;46728;-83
2021/07/21 11:59:33;;;;;;;;;18.50;15.25;;;;;;;;5079181;28;46899;-82
2021/07/21 12:02:10;;;;;;;;;18.50;15.75;;;;;;;;5079405;28;46996;-82
2021/07/21 12:04:41;;;;;;;;;11.25;9.50;;;;;;;;5079047;28;46988;-82
2021/07/21 12:07:07;;;;;;;;;16.75;12.50;;;;;;;;5078804;28;46801;-83
2021/07/21 12:09:34;;;;;;;;;13.75;11.75;;;;;;;;5079193;28;46984;-83
2021/07/21 12:12:01;;;;;;;;;13.75;13.00;;;;;;;;5078878;28;47097;-83
2021/07/21 12:14:27;;;;;;;;;11.75;9.25;;;;;;;;5079091;28;47107;-83
2021/07/21 12:16:53;;;;;;;;;16.50;13.50;;;;;;;;5078881;28;46964;-83
2021/07/21 12:19:25;;;;;;;;;12.75;10.25;;;;;;;;5079054;28;46834;-83
2021/07/21 12:22:07;;;;;;;;;15.00;15.00;;;;;;;;5072491;28;47151;-83
2021/07/21 12:24:40;;;;;;;;;14.25;13.00;;;;;;;;5058369;28;46912;-83
2021/07/21 12:27:06;;;;;;;;;10.00;10.00;;;;;;;;5058465;28;47028;-83
2021/07/21 12:29:32;;;;;;;;;16.25;11.75;;;;;;;;5058429;28;46790;-82
2021/07/21 12:32:11;;;;;;;;;17.00;15.00;;;;;;;;5058760;28;47055;-83
2021/07/21 12:34:37;;;;;;;;;14.00;10.50;;;;;;;;5071557;27;47157;-83
2021/07/21 12:37:05;;;;;;;;;11.75;10.25;;;;;;;;5058523;28;47145;-83
2021/07/21 12:39:31;;;;;;;;;13.00;12.00;;;;;;;;5058139;28;46835;-83
2021/07/21 12:42:06;;;;;;;;;11.75;10.25;;;;;;;;5058728;28;46770;-83
2021/07/21 12:44:36;;;;;;;;;10.00;9.75;;;;;;;;5058058;28;47087;-84
2021/07/21 12:47:15;;;;;;;;;14.50;12.75;;;;;;;;5058135;28;47048;-84
2021/07/21 12:49:42;;;;;;;;;10.25;10.25;;;;;;;;5047441;28;46944;-83
2021/07/21 12:52:09;;;;;;;;;16.50;14.25;;;;;;;;5078588;28;46826;-83
2021/07/21 12:54:36;;;;;;;;;11.00;11.00;;;;;;;;5078687;28;47686;-84
2021/07/21 12:57:02;;;;;;;;;7.00;6.50;;;;;;;;5078224;28;47023;-84
2021/07/21 12:59:35;;;;;;;;;12.75;11.25;;;;;;;;5059761;28;46943;-83
2021/07/21 13:02:23;;;;;;;;;16.50;14.00;;;;;;;;5078446;28;47078;-83
2021/07/21 13:04:48;;;;;;;;;13.00;11.50;;;;;;;;5077353;28;47835;-83
2021/07/21 13:07:13;;;;;;;;;12.00;10.50;;;;;;;;5078068;28;46932;-84
2021/07/21 13:09:39;;;;;;;;;11.75;10.50;;;;;;;;5077696;28;47012;-82
2021/07/21 13:12:14;;;;;;;;;11.25;10.00;;;;;;;;5059418;28;47130;-82
2021/07/21 13:14:39;;;;;;;;;12.00;11.25;;;;;;;;5077908;28;48065;-82
2021/07/21 13:17:18;;;;;;;;;12.00;10.00;;;;;;;;5059437;28;47301;-81
2021/07/21 13:19:43;;;;;;;;;14.50;12.75;;;;;;;;5059396;28;46992;-81
2021/07/21 13:22:21;;;;;;;;;11.25;9.25;;;;;;;;5069794;28;47088;-81
2021/07/21 13:24:46;;;;;;;;;13.00;11.00;;;;;;;;5057417;28;48087;-81
2021/07/21 13:27:13;;;;;;;;;19.00;15.00;;;;;;;;5039229;28;46948;-81
2021/07/21 13:29:39;;;;;;;;;13.00;11.50;;;;;;;;5057516;28;46837;-81
2021/07/21 13:32:05;;;;;;;;;14.00;13.00;;;;;;;;5057657;28;46779;-81
2021/07/21 13:34:32;;;;;;;;;10.00;9.25;;;;;;;;5070519;27;47816;-81
2021/07/21 13:37:01;;;;;;;;;8.00;7.50;;;;;;;;5057477;28;46982;-81
2021/07/21 13:39:26;;;;;;;;;8.25;7.25;;;;;;;;5057358;28;47043;-81
2021/07/21 13:41:53;;;;;;;;;11.75;11.00;;;;;;;;5039425;28;47340;-81
2021/07/21 13:44:20;;;;;;;;;12.25;10.00;;;;;;;;5056994;28;46842;-81
2021/07/21 13:46:47;;;;;;;;;13.50;12.00;;;;;;;;5039144;28;47031;-81
2021/07/21 13:49:12;;;;;;;;;14.75;12.50;;;;;;;;5057280;28;46932;-81
2021/07/21 13:51:37;;;;;;;;;11.75;11.25;;;;;;;;5057286;28;47211;-81
2021/07/21 13:54:09;;;;;;;;;13.25;12.50;;;;;;;;5057113;28;47678;-81
2021/07/21 13:56:34;;;;;;;;;11.50;10.00;;;;;;;;5057231;28;47010;-81
2021/07/21 13:58:59;;;;;;;;;14.75;12.00;;;;;;;;5057008;28;46938;-81
2021/07/21 14:01:25;;;;;;;;;17.25;13.25;;;;;;;;5057419;28;47041;-81
2021/07/21 14:03:50;;;;;;;;;11.00;10.00;;;;;;;;5038630;28;49356;-81
2021/07/21 14:06:15;;;;;;;;;11.75;11.00;;;;;;;;5056833;28;46905;-81
2021/07/21 14:08:41;;;;;;;;;18.50;15.00;;;;;;;;5056989;28;46909;-81
2021/07/21 14:11:06;;;;;;;;;12.50;12.50;;;;;;;;5038628;28;46857;-81
2021/07/21 14:13:32;;;;;;;;;17.00;12.50;;;;;;;;5056596;28;47070;-81
2021/07/21 14:15:58;;;;;;;;;14.75;12.75;;;;;;;;5056818;28;46858;-81
2021/07/21 14:18:23;;;;;;;;;8.75;8.25;;;;;;;;5056937;28;47052;-81
2021/07/21 14:20:49;;;;;;;;;13.25;10.75;;;;;;;;5060892;28;47105;-81
2021/07/21 14:23:14;;;;;;;;;13.75;13.25;;;;;;;;5043675;28;48636;-80
2021/07/21 14:25:40;;;;;;;;;17.50;16.75;;;;;;;;5060411;28;47096;-80
2021/07/21 14:28:05;;;;;;;;;16.00;15.00;;;;;;;;5060087;28;46854;-80